sensor_id;sensor_type;location;lat;lon;timestamp;temperature;humidity
78028;DHT22;67235;45.638;11.714;2023-07-16T00:01:52;25.80;75.80
78028;DHT22;67235;45.638;11.714;2023-07-16T00:04:18;25.80;76.00
78028;DHT22;67235;45.638;11.714;2023-07-16T00:06:44;25.80;75.90
78028;DHT22;67235;45.638;11.714;2023-07-16T00:09:10;25.80;76.10
78028;DHT22;67235;45.638;11.714;2023-07-16T00:11:35;25.80;76.40
78028;DHT22;67235;45.638;11.714;2023-07-16T00:14:01;25.80;76.40
78028;DHT22;67235;45.638;11.714;2023-07-16T00:16:28;25.70;76.60
78028;DHT22;67235;45.638;11.714;2023-07-16T00:18:53;25.50;76.80
78028;DHT22;67235;45.638;11.714;2023-07-16T00:21:19;25.50;76.70
78028;DHT22;67235;45.638;11.714;2023-07-16T00:23:46;25.40;76.50
78028;DHT22;67235;45.638;11.714;2023-07-16T00:26:13;25.40;76.80
78028;DHT22;67235;45.638;11.714;2023-07-16T00:28:39;25.40;76.90
78028;DHT22;67235;45.638;11.714;2023-07-16T00:31:05;25.40;77.10
78028;DHT22;67235;45.638;11.714;2023-07-16T00:33:30;25.40;77.10
78028;DHT22;67235;45.638;11.714;2023-07-16T00:35:56;25.40;77.10
78028;DHT22;67235;45.638;11.714;2023-07-16T00:38:22;25.30;77.30
78028;DHT22;67235;45.638;11.714;2023-07-16T00:40:48;25.30;77.40
78028;DHT22;67235;45.638;11.714;2023-07-16T00:43:14;25.20;77.60
78028;DHT22;67235;45.638;11.714;2023-07-16T00:45:41;25.20;77.50
78028;DHT22;67235;45.638;11.714;2023-07-16T00:48:08;25.10;77.50
78028;DHT22;67235;45.638;11.714;2023-07-16T00:50:36;25.10;77.60
78028;DHT22;67235;45.638;11.714;2023-07-16T00:53:06;25.00;77.70
78028;DHT22;67235;45.638;11.714;2023-07-16T00:55:33;24.90;77.80
78028;DHT22;67235;45.638;11.714;2023-07-16T00:58:04;24.90;77.90
78028;DHT22;67235;45.638;11.714;2023-07-16T01:00:36;24.90;77.80
78028;DHT22;67235;45.638;11.714;2023-07-16T01:03:04;24.80;78.00
78028;DHT22;67235;45.638;11.714;2023-07-16T01:05:39;24.80;78.10
78028;DHT22;67235;45.638;11.714;2023-07-16T01:08:09;24.90;78.40
78028;DHT22;67235;45.638;11.714;2023-07-16T01:10:38;24.90;78.50
78028;DHT22;67235;45.638;11.714;2023-07-16T01:13:04;24.80;78.20
78028;DHT22;67235;45.638;11.714;2023-07-16T01:15:30;24.80;78.10
78028;DHT22;67235;45.638;11.714;2023-07-16T01:17:56;24.70;78.30
78028;DHT22;67235;45.638;11.714;2023-07-16T01:20:21;24.70;78.50
78028;DHT22;67235;45.638;11.714;2023-07-16T01:25:46;24.70;78.60
78028;DHT22;67235;45.638;11.714;2023-07-16T01:28:27;24.80;78.50
78028;DHT22;67235;45.638;11.714;2023-07-16T01:30:55;24.70;78.50
78028;DHT22;67235;45.638;11.714;2023-07-16T01:33:24;24.70;78.60
78028;DHT22;67235;45.638;11.714;2023-07-16T01:35:51;24.70;78.80
78028;DHT22;67235;45.638;11.714;2023-07-16T01:38:18;24.80;78.80
78028;DHT22;67235;45.638;11.714;2023-07-16T01:40:46;24.70;79.00
78028;DHT22;67235;45.638;11.714;2023-07-16T01:43:12;24.70;78.80
78028;DHT22;67235;45.638;11.714;2023-07-16T01:45:39;24.70;78.70
78028;DHT22;67235;45.638;11.714;2023-07-16T01:48:35;24.70;78.80
78028;DHT22;67235;45.638;11.714;2023-07-16T01:51:03;24.70;78.70
78028;DHT22;67235;45.638;11.714;2023-07-16T01:53:29;24.60;78.80
78028;DHT22;67235;45.638;11.714;2023-07-16T01:55:55;24.60;78.80
78028;DHT22;67235;45.638;11.714;2023-07-16T01:58:21;24.70;79.10
78028;DHT22;67235;45.638;11.714;2023-07-16T02:00:47;24.70;78.90
78028;DHT22;67235;45.638;11.714;2023-07-16T02:03:13;24.60;78.90
78028;DHT22;67235;45.638;11.714;2023-07-16T02:05:39;24.60;79.10
78028;DHT22;67235;45.638;11.714;2023-07-16T02:08:06;24.60;79.10
78028;DHT22;67235;45.638;11.714;2023-07-16T02:10:32;24.50;78.90
78028;DHT22;67235;45.638;11.714;2023-07-16T02:12:58;24.50;79.10
78028;DHT22;67235;45.638;11.714;2023-07-16T02:15:23;24.40;79.20
78028;DHT22;67235;45.638;11.714;2023-07-16T02:17:50;24.40;79.40
78028;DHT22;67235;45.638;11.714;2023-07-16T02:20:15;24.50;79.30
78028;DHT22;67235;45.638;11.714;2023-07-16T02:22:41;24.50;79.30
78028;DHT22;67235;45.638;11.714;2023-07-16T02:25:07;24.50;79.10
78028;DHT22;67235;45.638;11.714;2023-07-16T02:27:33;24.40;79.00
78028;DHT22;67235;45.638;11.714;2023-07-16T02:29:59;24.40;79.00
78028;DHT22;67235;45.638;11.714;2023-07-16T02:32:25;24.40;79.20
78028;DHT22;67235;45.638;11.714;2023-07-16T02:34:51;24.30;79.10
78028;DHT22;67235;45.638;11.714;2023-07-16T02:37:17;24.20;79.20
78028;DHT22;67235;45.638;11.714;2023-07-16T02:39:44;24.20;79.50
78028;DHT22;67235;45.638;11.714;2023-07-16T02:42:12;24.20;79.50
78028;DHT22;67235;45.638;11.714;2023-07-16T02:44:37;24.20;79.60
78028;DHT22;67235;45.638;11.714;2023-07-16T02:47:07;24.20;79.50
78028;DHT22;67235;45.638;11.714;2023-07-16T02:49:33;24.20;79.70
78028;DHT22;67235;45.638;11.714;2023-07-16T02:51:59;24.20;79.80
78028;DHT22;67235;45.638;11.714;2023-07-16T02:54:25;24.10;79.70
78028;DHT22;67235;45.638;11.714;2023-07-16T02:56:51;24.10;79.80
78028;DHT22;67235;45.638;11.714;2023-07-16T02:59:16;24.10;79.80
78028;DHT22;67235;45.638;11.714;2023-07-16T03:01:42;24.10;79.50
78028;DHT22;67235;45.638;11.714;2023-07-16T03:04:08;24.10;79.80
78028;DHT22;67235;45.638;11.714;2023-07-16T03:06:34;24.10;79.50
78028;DHT22;67235;45.638;11.714;2023-07-16T03:09:00;24.00;79.60
78028;DHT22;67235;45.638;11.714;2023-07-16T03:11:26;24.00;79.50
78028;DHT22;67235;45.638;11.714;2023-07-16T03:13:52;24.00;79.40
78028;DHT22;67235;45.638;11.714;2023-07-16T03:16:18;24.00;79.80
78028;DHT22;67235;45.638;11.714;2023-07-16T03:18:44;24.00;79.90
78028;DHT22;67235;45.638;11.714;2023-07-16T03:21:13;23.90;79.70
78028;DHT22;67235;45.638;11.714;2023-07-16T03:23:39;23.90;79.30
78028;DHT22;67235;45.638;11.714;2023-07-16T03:26:05;23.90;79.80
78028;DHT22;67235;45.638;11.714;2023-07-16T03:28:32;23.90;79.80
78028;DHT22;67235;45.638;11.714;2023-07-16T03:30:59;23.80;79.90
78028;DHT22;67235;45.638;11.714;2023-07-16T03:33:25;23.90;80.10
78028;DHT22;67235;45.638;11.714;2023-07-16T03:35:51;23.90;80.10
78028;DHT22;67235;45.638;11.714;2023-07-16T03:38:17;23.90;80.00
78028;DHT22;67235;45.638;11.714;2023-07-16T03:40:46;23.90;80.00
78028;DHT22;67235;45.638;11.714;2023-07-16T03:43:13;23.90;79.90
78028;DHT22;67235;45.638;11.714;2023-07-16T03:45:39;23.90;79.40
78028;DHT22;67235;45.638;11.714;2023-07-16T03:48:05;23.90;79.50
78028;DHT22;67235;45.638;11.714;2023-07-16T03:50:31;23.80;79.80
78028;DHT22;67235;45.638;11.714;2023-07-16T03:52:57;23.80;80.00
78028;DHT22;67235;45.638;11.714;2023-07-16T03:55:23;23.90;80.00
78028;DHT22;67235;45.638;11.714;2023-07-16T03:57:49;24.00;80.00
78028;DHT22;67235;45.638;11.714;2023-07-16T04:00:14;23.90;79.90
78028;DHT22;67235;45.638;11.714;2023-07-16T04:02:40;24.00;79.50
78028;DHT22;67235;45.638;11.714;2023-07-16T04:05:07;24.00;79.50
78028;DHT22;67235;45.638;11.714;2023-07-16T04:07:33;24.00;79.40
78028;DHT22;67235;45.638;11.714;2023-07-16T04:09:58;24.00;79.50
78028;DHT22;67235;45.638;11.714;2023-07-16T04:12:24;24.20;79.30
78028;DHT22;67235;45.638;11.714;2023-07-16T04:14:55;24.20;79.00
78028;DHT22;67235;45.638;11.714;2023-07-16T04:17:22;24.30;78.90
78028;DHT22;67235;45.638;11.714;2023-07-16T04:19:47;24.40;78.40
78028;DHT22;67235;45.638;11.714;2023-07-16T04:22:13;24.90;77.70
78028;DHT22;67235;45.638;11.714;2023-07-16T04:24:39;25.40;76.50
78028;DHT22;67235;45.638;11.714;2023-07-16T04:27:05;26.20;75.50
78028;DHT22;67235;45.638;11.714;2023-07-16T04:29:31;26.80;74.50
78028;DHT22;67235;45.638;11.714;2023-07-16T04:31:57;27.40;73.60
78028;DHT22;67235;45.638;11.714;2023-07-16T04:34:23;27.90;72.70
78028;DHT22;67235;45.638;11.714;2023-07-16T04:36:48;28.30;72.00
78028;DHT22;67235;45.638;11.714;2023-07-16T04:39:14;28.70;71.30
78028;DHT22;67235;45.638;11.714;2023-07-16T04:41:40;29.10;70.00
78028;DHT22;67235;45.638;11.714;2023-07-16T04:44:06;29.60;68.50
78028;DHT22;67235;45.638;11.714;2023-07-16T04:46:32;29.80;67.00
78028;DHT22;67235;45.638;11.714;2023-07-16T04:48:58;30.30;66.00
78028;DHT22;67235;45.638;11.714;2023-07-16T04:51:24;30.70;64.60
78028;DHT22;67235;45.638;11.714;2023-07-16T04:53:50;31.00;63.60
78028;DHT22;67235;45.638;11.714;2023-07-16T04:56:16;31.40;63.10
78028;DHT22;67235;45.638;11.714;2023-07-16T04:58:42;31.60;61.60
78028;DHT22;67235;45.638;11.714;2023-07-16T05:01:09;32.20;59.30
78028;DHT22;67235;45.638;11.714;2023-07-16T05:03:35;32.50;58.20
78028;DHT22;67235;45.638;11.714;2023-07-16T05:06:01;32.80;56.70
78028;DHT22;67235;45.638;11.714;2023-07-16T05:08:27;33.20;55.20
78028;DHT22;67235;45.638;11.714;2023-07-16T05:10:53;33.50;54.50
78028;DHT22;67235;45.638;11.714;2023-07-16T05:13:19;33.80;53.20
78028;DHT22;67235;45.638;11.714;2023-07-16T05:15:45;34.40;52.00
78028;DHT22;67235;45.638;11.714;2023-07-16T05:18:11;34.60;49.10
78028;DHT22;67235;45.638;11.714;2023-07-16T05:20:37;34.80;49.50
78028;DHT22;67235;45.638;11.714;2023-07-16T05:23:03;34.90;48.80
78028;DHT22;67235;45.638;11.714;2023-07-16T05:25:29;35.20;47.90
78028;DHT22;67235;45.638;11.714;2023-07-16T05:27:55;35.30;47.10
78028;DHT22;67235;45.638;11.714;2023-07-16T05:30:21;35.80;46.20
78028;DHT22;67235;45.638;11.714;2023-07-16T05:32:47;36.00;46.00
78028;DHT22;67235;45.638;11.714;2023-07-16T05:35:13;36.40;45.10
78028;DHT22;67235;45.638;11.714;2023-07-16T05:37:39;36.60;44.80
78028;DHT22;67235;45.638;11.714;2023-07-16T05:40:05;37.20;44.50
78028;DHT22;67235;45.638;11.714;2023-07-16T05:42:34;36.90;43.70
78028;DHT22;67235;45.638;11.714;2023-07-16T05:45:00;37.30;42.30
78028;DHT22;67235;45.638;11.714;2023-07-16T05:47:26;37.50;42.00
78028;DHT22;67235;45.638;11.714;2023-07-16T05:49:52;37.40;42.50
78028;DHT22;67235;45.638;11.714;2023-07-16T05:52:17;37.80;42.10
78028;DHT22;67235;45.638;11.714;2023-07-16T05:54:44;38.10;41.40
78028;DHT22;67235;45.638;11.714;2023-07-16T05:57:12;38.10;41.00
78028;DHT22;67235;45.638;11.714;2023-07-16T05:59:38;38.00;41.60
78028;DHT22;67235;45.638;11.714;2023-07-16T06:02:05;38.00;42.00
78028;DHT22;67235;45.638;11.714;2023-07-16T06:04:31;38.30;40.40
78028;DHT22;67235;45.638;11.714;2023-07-16T06:06:57;38.50;40.80
78028;DHT22;67235;45.638;11.714;2023-07-16T06:09:23;38.90;40.30
78028;DHT22;67235;45.638;11.714;2023-07-16T06:11:49;39.10;40.10
78028;DHT22;67235;45.638;11.714;2023-07-16T06:14:15;39.30;39.40
78028;DHT22;67235;45.638;11.714;2023-07-16T06:16:41;39.50;38.70
78028;DHT22;67235;45.638;11.714;2023-07-16T06:19:07;39.80;38.30
78028;DHT22;67235;45.638;11.714;2023-07-16T06:21:33;39.80;38.10
78028;DHT22;67235;45.638;11.714;2023-07-16T06:24:00;39.60;39.30
78028;DHT22;67235;45.638;11.714;2023-07-16T06:26:28;39.70;37.50
78028;DHT22;67235;45.638;11.714;2023-07-16T06:28:56;39.40;38.90
78028;DHT22;67235;45.638;11.714;2023-07-16T06:31:22;38.70;39.90
78028;DHT22;67235;45.638;11.714;2023-07-16T06:33:48;39.00;39.80
78028;DHT22;67235;45.638;11.714;2023-07-16T06:36:15;39.10;39.30
78028;DHT22;67235;45.638;11.714;2023-07-16T06:38:41;38.80;40.60
78028;DHT22;67235;45.638;11.714;2023-07-16T06:41:07;38.40;40.60
78028;DHT22;67235;45.638;11.714;2023-07-16T06:43:33;37.80;40.80
78028;DHT22;67235;45.638;11.714;2023-07-16T06:45:59;37.40;43.40
78028;DHT22;67235;45.638;11.714;2023-07-16T06:48:25;37.40;42.80
78028;DHT22;67235;45.638;11.714;2023-07-16T06:50:51;37.20;44.20
78028;DHT22;67235;45.638;11.714;2023-07-16T06:53:17;37.20;44.40
78028;DHT22;67235;45.638;11.714;2023-07-16T06:55:43;37.20;44.10
78028;DHT22;67235;45.638;11.714;2023-07-16T06:58:13;37.20;42.10
78028;DHT22;67235;45.638;11.714;2023-07-16T07:00:40;37.00;43.70
78028;DHT22;67235;45.638;11.714;2023-07-16T07:03:06;36.70;43.60
78028;DHT22;67235;45.638;11.714;2023-07-16T07:05:32;36.40;45.50
78028;DHT22;67235;45.638;11.714;2023-07-16T07:07:57;36.60;46.30
78028;DHT22;67235;45.638;11.714;2023-07-16T07:10:23;36.20;46.10
78028;DHT22;67235;45.638;11.714;2023-07-16T07:12:49;36.60;44.90
78028;DHT22;67235;45.638;11.714;2023-07-16T07:15:15;36.70;43.80
78028;DHT22;67235;45.638;11.714;2023-07-16T07:17:42;36.50;44.80
78028;DHT22;67235;45.638;11.714;2023-07-16T07:20:08;36.70;45.40
78028;DHT22;67235;45.638;11.714;2023-07-16T07:22:35;36.80;45.70
78028;DHT22;67235;45.638;11.714;2023-07-16T07:25:00;36.90;45.30
78028;DHT22;67235;45.638;11.714;2023-07-16T07:27:35;36.80;45.00
78028;DHT22;67235;45.638;11.714;2023-07-16T07:30:17;37.00;45.00
78028;DHT22;67235;45.638;11.714;2023-07-16T07:33:39;37.20;43.90
78028;DHT22;67235;45.638;11.714;2023-07-16T07:36:09;37.30;43.70
78028;DHT22;67235;45.638;11.714;2023-07-16T07:38:36;36.50;45.70
78028;DHT22;67235;45.638;11.714;2023-07-16T07:41:13;37.00;45.30
78028;DHT22;67235;45.638;11.714;2023-07-16T07:43:51;37.20;45.80
78028;DHT22;67235;45.638;11.714;2023-07-16T07:46:37;37.40;43.80
78028;DHT22;67235;45.638;11.714;2023-07-16T07:49:24;37.60;42.40
78028;DHT22;67235;45.638;11.714;2023-07-16T07:52:00;37.70;43.50
78028;DHT22;67235;45.638;11.714;2023-07-16T07:54:28;37.80;41.20
78028;DHT22;67235;45.638;11.714;2023-07-16T07:57:03;37.70;42.30
78028;DHT22;67235;45.638;11.714;2023-07-16T07:59:42;37.90;40.90
78028;DHT22;67235;45.638;11.714;2023-07-16T08:02:15;37.70;42.50
78028;DHT22;67235;45.638;11.714;2023-07-16T08:04:52;37.60;42.60
78028;DHT22;67235;45.638;11.714;2023-07-16T08:07:25;37.60;42.90
78028;DHT22;67235;45.638;11.714;2023-07-16T08:09:53;37.60;42.70
78028;DHT22;67235;45.638;11.714;2023-07-16T08:12:31;37.80;43.70
78028;DHT22;67235;45.638;11.714;2023-07-16T08:15:02;38.00;43.60
78028;DHT22;67235;45.638;11.714;2023-07-16T08:17:42;37.80;41.30
78028;DHT22;67235;45.638;11.714;2023-07-16T08:20:36;37.00;43.30
78028;DHT22;67235;45.638;11.714;2023-07-16T08:23:03;37.60;43.40
78028;DHT22;67235;45.638;11.714;2023-07-16T08:25:35;37.70;42.70
78028;DHT22;67235;45.638;11.714;2023-07-16T08:28:14;38.00;40.50
78028;DHT22;67235;45.638;11.714;2023-07-16T08:31:10;38.00;43.50
78028;DHT22;67235;45.638;11.714;2023-07-16T08:33:37;38.10;42.80
78028;DHT22;67235;45.638;11.714;2023-07-16T08:36:37;38.30;42.80
78028;DHT22;67235;45.638;11.714;2023-07-16T08:39:30;38.20;43.50
78028;DHT22;67235;45.638;11.714;2023-07-16T08:42:12;38.20;42.10
78028;DHT22;67235;45.638;11.714;2023-07-16T08:44:52;38.30;42.40
78028;DHT22;67235;45.638;11.714;2023-07-16T08:47:19;38.20;41.90
78028;DHT22;67235;45.638;11.714;2023-07-16T08:49:56;38.10;42.70
78028;DHT22;67235;45.638;11.714;2023-07-16T08:52:25;37.90;43.10
78028;DHT22;67235;45.638;11.714;2023-07-16T08:55:03;38.30;41.20
78028;DHT22;67235;45.638;11.714;2023-07-16T08:57:30;38.10;43.80
78028;DHT22;67235;45.638;11.714;2023-07-16T08:59:58;38.30;44.10
78028;DHT22;67235;45.638;11.714;2023-07-16T09:02:44;38.50;42.20
78028;DHT22;67235;45.638;11.714;2023-07-16T09:05:39;38.40;42.70
78028;DHT22;67235;45.638;11.714;2023-07-16T09:08:15;38.50;41.60
78028;DHT22;67235;45.638;11.714;2023-07-16T09:13:08;38.80;40.90
78028;DHT22;67235;45.638;11.714;2023-07-16T09:15:34;38.80;40.20
78028;DHT22;67235;45.638;11.714;2023-07-16T09:18:00;38.90;40.80
78028;DHT22;67235;45.638;11.714;2023-07-16T09:20:26;38.70;41.20
78028;DHT22;67235;45.638;11.714;2023-07-16T09:22:58;38.90;41.60
78028;DHT22;67235;45.638;11.714;2023-07-16T09:25:29;38.80;43.60
78028;DHT22;67235;45.638;11.714;2023-07-16T09:27:57;38.90;41.80
78028;DHT22;67235;45.638;11.714;2023-07-16T09:30:23;38.90;41.30
78028;DHT22;67235;45.638;11.714;2023-07-16T09:32:49;38.80;41.20
78028;DHT22;67235;45.638;11.714;2023-07-16T09:35:17;38.80;41.70
78028;DHT22;67235;45.638;11.714;2023-07-16T09:37:43;39.10;41.40
78028;DHT22;67235;45.638;11.714;2023-07-16T09:40:11;39.10;40.70
78028;DHT22;67235;45.638;11.714;2023-07-16T09:42:38;39.20;40.70
78028;DHT22;67235;45.638;11.714;2023-07-16T09:45:19;38.90;41.60
78028;DHT22;67235;45.638;11.714;2023-07-16T09:47:45;39.10;40.70
78028;DHT22;67235;45.638;11.714;2023-07-16T09:50:12;38.90;39.90
78028;DHT22;67235;45.638;11.714;2023-07-16T09:52:39;38.80;42.40
78028;DHT22;67235;45.638;11.714;2023-07-16T09:55:07;39.10;39.00
78028;DHT22;67235;45.638;11.714;2023-07-16T09:57:42;38.80;40.10
78028;DHT22;67235;45.638;11.714;2023-07-16T10:00:13;38.60;40.70
78028;DHT22;67235;45.638;11.714;2023-07-16T10:02:40;38.70;40.70
78028;DHT22;67235;45.638;11.714;2023-07-16T10:05:18;38.40;40.90
78028;DHT22;67235;45.638;11.714;2023-07-16T10:08:04;38.60;41.80
78028;DHT22;67235;45.638;11.714;2023-07-16T10:10:41;38.50;39.50
78028;DHT22;67235;45.638;11.714;2023-07-16T10:13:07;38.90;41.20
78028;DHT22;67235;45.638;11.714;2023-07-16T10:15:34;39.00;40.40
78028;DHT22;67235;45.638;11.714;2023-07-16T10:18:00;39.00;39.50
78028;DHT22;67235;45.638;11.714;2023-07-16T10:20:36;38.40;40.00
78028;DHT22;67235;45.638;11.714;2023-07-16T10:23:15;38.30;41.40
78028;DHT22;67235;45.638;11.714;2023-07-16T10:26:01;38.40;41.20
78028;DHT22;67235;45.638;11.714;2023-07-16T10:28:31;38.70;41.60
78028;DHT22;67235;45.638;11.714;2023-07-16T10:30:58;38.80;41.40
78028;DHT22;67235;45.638;11.714;2023-07-16T10:33:23;38.90;39.80
78028;DHT22;67235;45.638;11.714;2023-07-16T10:35:49;38.60;42.00
78028;DHT22;67235;45.638;11.714;2023-07-16T10:38:15;38.50;41.80
78028;DHT22;67235;45.638;11.714;2023-07-16T10:40:45;38.70;40.30
78028;DHT22;67235;45.638;11.714;2023-07-16T10:43:12;38.60;40.90
78028;DHT22;67235;45.638;11.714;2023-07-16T10:45:38;38.50;40.80
78028;DHT22;67235;45.638;11.714;2023-07-16T10:48:04;38.50;41.50
78028;DHT22;67235;45.638;11.714;2023-07-16T10:50:34;38.00;41.20
78028;DHT22;67235;45.638;11.714;2023-07-16T10:53:01;37.40;41.30
78028;DHT22;67235;45.638;11.714;2023-07-16T10:55:28;37.60;41.00
78028;DHT22;67235;45.638;11.714;2023-07-16T10:57:56;37.40;41.10
78028;DHT22;67235;45.638;11.714;2023-07-16T11:00:22;36.60;44.40
78028;DHT22;67235;45.638;11.714;2023-07-16T11:02:50;36.70;42.60
78028;DHT22;67235;45.638;11.714;2023-07-16T11:05:17;36.50;44.40
78028;DHT22;67235;45.638;11.714;2023-07-16T11:07:48;36.10;44.00
78028;DHT22;67235;45.638;11.714;2023-07-16T11:10:18;36.30;42.30
78028;DHT22;67235;45.638;11.714;2023-07-16T11:12:44;37.00;42.70
78028;DHT22;67235;45.638;11.714;2023-07-16T11:15:10;37.10;42.20
78028;DHT22;67235;45.638;11.714;2023-07-16T11:17:39;37.20;41.60
78028;DHT22;67235;45.638;11.714;2023-07-16T11:20:08;37.30;42.00
78028;DHT22;67235;45.638;11.714;2023-07-16T11:22:37;37.20;42.90
78028;DHT22;67235;45.638;11.714;2023-07-16T11:25:04;37.00;42.20
78028;DHT22;67235;45.638;11.714;2023-07-16T11:27:36;36.80;40.30
78028;DHT22;67235;45.638;11.714;2023-07-16T11:30:02;36.30;43.20
78028;DHT22;67235;45.638;11.714;2023-07-16T11:32:29;36.50;42.80
78028;DHT22;67235;45.638;11.714;2023-07-16T11:34:56;36.40;41.40
78028;DHT22;67235;45.638;11.714;2023-07-16T11:37:24;36.70;41.90
78028;DHT22;67235;45.638;11.714;2023-07-16T11:39:50;36.40;42.50
78028;DHT22;67235;45.638;11.714;2023-07-16T11:42:27;36.40;42.90
78028;DHT22;67235;45.638;11.714;2023-07-16T11:44:54;36.30;43.00
78028;DHT22;67235;45.638;11.714;2023-07-16T11:47:21;36.30;41.30
78028;DHT22;67235;45.638;11.714;2023-07-16T11:49:47;36.20;42.60
78028;DHT22;67235;45.638;11.714;2023-07-16T11:52:13;36.50;41.10
78028;DHT22;67235;45.638;11.714;2023-07-16T11:54:39;36.10;43.10
78028;DHT22;67235;45.638;11.714;2023-07-16T11:57:05;36.40;45.30
78028;DHT22;67235;45.638;11.714;2023-07-16T11:59:31;36.60;42.00
78028;DHT22;67235;45.638;11.714;2023-07-16T12:01:57;36.50;42.20
78028;DHT22;67235;45.638;11.714;2023-07-16T12:04:23;36.40;42.50
78028;DHT22;67235;45.638;11.714;2023-07-16T12:06:49;36.80;40.10
78028;DHT22;67235;45.638;11.714;2023-07-16T12:09:15;36.50;40.10
78028;DHT22;67235;45.638;11.714;2023-07-16T12:11:40;36.00;41.50
78028;DHT22;67235;45.638;11.714;2023-07-16T12:14:06;35.90;42.00
78028;DHT22;67235;45.638;11.714;2023-07-16T12:16:32;36.20;42.10
78028;DHT22;67235;45.638;11.714;2023-07-16T12:18:58;36.50;38.70
78028;DHT22;67235;45.638;11.714;2023-07-16T12:21:24;36.60;41.40
78028;DHT22;67235;45.638;11.714;2023-07-16T12:23:50;36.70;41.00
78028;DHT22;67235;45.638;11.714;2023-07-16T12:26:16;36.40;40.60
78028;DHT22;67235;45.638;11.714;2023-07-16T12:28:42;36.50;40.40
78028;DHT22;67235;45.638;11.714;2023-07-16T12:31:07;36.20;40.90
78028;DHT22;67235;45.638;11.714;2023-07-16T12:33:34;36.50;40.50
78028;DHT22;67235;45.638;11.714;2023-07-16T12:36:00;36.50;40.70
78028;DHT22;67235;45.638;11.714;2023-07-16T12:38:25;36.90;41.40
78028;DHT22;67235;45.638;11.714;2023-07-16T12:40:51;36.70;38.50
78028;DHT22;67235;45.638;11.714;2023-07-16T12:43:17;36.10;38.50
78028;DHT22;67235;45.638;11.714;2023-07-16T12:45:43;36.40;36.70
78028;DHT22;67235;45.638;11.714;2023-07-16T12:48:09;36.70;38.90
78028;DHT22;67235;45.638;11.714;2023-07-16T12:50:35;36.40;41.10
78028;DHT22;67235;45.638;11.714;2023-07-16T12:53:01;36.10;41.20
78028;DHT22;67235;45.638;11.714;2023-07-16T12:55:27;36.40;40.10
78028;DHT22;67235;45.638;11.714;2023-07-16T12:57:53;36.70;38.70
78028;DHT22;67235;45.638;11.714;2023-07-16T13:00:19;36.90;38.60
78028;DHT22;67235;45.638;11.714;2023-07-16T13:02:45;37.00;37.40
78028;DHT22;67235;45.638;11.714;2023-07-16T13:05:11;37.20;37.90
78028;DHT22;67235;45.638;11.714;2023-07-16T13:07:37;37.10;36.80
78028;DHT22;67235;45.638;11.714;2023-07-16T13:10:03;37.10;40.60
78028;DHT22;67235;45.638;11.714;2023-07-16T13:12:29;37.30;40.40
78028;DHT22;67235;45.638;11.714;2023-07-16T13:14:55;37.20;39.80
78028;DHT22;67235;45.638;11.714;2023-07-16T13:17:22;37.30;38.60
78028;DHT22;67235;45.638;11.714;2023-07-16T13:19:48;37.40;37.30
78028;DHT22;67235;45.638;11.714;2023-07-16T13:22:14;37.30;33.60
78028;DHT22;67235;45.638;11.714;2023-07-16T13:24:40;37.20;35.30
78028;DHT22;67235;45.638;11.714;2023-07-16T13:27:19;37.20;32.80
78028;DHT22;67235;45.638;11.714;2023-07-16T13:29:47;37.10;34.90
78028;DHT22;67235;45.638;11.714;2023-07-16T13:32:13;37.10;32.10
78028;DHT22;67235;45.638;11.714;2023-07-16T13:34:41;36.90;34.10
78028;DHT22;67235;45.638;11.714;2023-07-16T13:37:11;36.90;34.20
78028;DHT22;67235;45.638;11.714;2023-07-16T13:39:37;36.80;33.00
78028;DHT22;67235;45.638;11.714;2023-07-16T13:42:03;36.70;34.50
78028;DHT22;67235;45.638;11.714;2023-07-16T13:44:32;36.50;32.60
78028;DHT22;67235;45.638;11.714;2023-07-16T13:46:58;36.70;34.90
78028;DHT22;67235;45.638;11.714;2023-07-16T13:49:24;36.90;36.10
78028;DHT22;67235;45.638;11.714;2023-07-16T13:51:50;36.90;32.80
78028;DHT22;67235;45.638;11.714;2023-07-16T13:54:16;37.00;33.70
78028;DHT22;67235;45.638;11.714;2023-07-16T13:56:41;37.20;33.40
78028;DHT22;67235;45.638;11.714;2023-07-16T13:59:07;37.20;34.40
78028;DHT22;67235;45.638;11.714;2023-07-16T14:01:38;37.20;36.70
78028;DHT22;67235;45.638;11.714;2023-07-16T14:04:04;37.30;34.10
78028;DHT22;67235;45.638;11.714;2023-07-16T14:06:30;37.20;37.60
78028;DHT22;67235;45.638;11.714;2023-07-16T14:08:57;37.20;36.80
78028;DHT22;67235;45.638;11.714;2023-07-16T14:11:23;37.00;38.90
78028;DHT22;67235;45.638;11.714;2023-07-16T14:13:49;37.10;39.60
78028;DHT22;67235;45.638;11.714;2023-07-16T14:16:20;36.90;40.30
78028;DHT22;67235;45.638;11.714;2023-07-16T14:18:53;36.80;43.60
78028;DHT22;67235;45.638;11.714;2023-07-16T14:21:19;36.80;43.20
78028;DHT22;67235;45.638;11.714;2023-07-16T14:23:46;36.40;42.30
78028;DHT22;67235;45.638;11.714;2023-07-16T14:26:12;36.40;45.10
78028;DHT22;67235;45.638;11.714;2023-07-16T14:28:38;36.50;43.70
78028;DHT22;67235;45.638;11.714;2023-07-16T14:31:04;36.20;44.10
78028;DHT22;67235;45.638;11.714;2023-07-16T14:33:30;36.00;43.20
78028;DHT22;67235;45.638;11.714;2023-07-16T14:35:57;36.00;45.70
78028;DHT22;67235;45.638;11.714;2023-07-16T14:38:23;35.90;45.70
78028;DHT22;67235;45.638;11.714;2023-07-16T14:40:49;35.80;43.90
78028;DHT22;67235;45.638;11.714;2023-07-16T14:43:18;35.80;46.80
78028;DHT22;67235;45.638;11.714;2023-07-16T14:45:44;35.80;46.90
78028;DHT22;67235;45.638;11.714;2023-07-16T14:48:09;35.70;46.80
78028;DHT22;67235;45.638;11.714;2023-07-16T14:50:35;35.60;47.80
78028;DHT22;67235;45.638;11.714;2023-07-16T14:53:01;35.70;47.60
78028;DHT22;67235;45.638;11.714;2023-07-16T14:55:27;35.70;45.10
78028;DHT22;67235;45.638;11.714;2023-07-16T14:57:54;35.70;47.20
78028;DHT22;67235;45.638;11.714;2023-07-16T15:00:19;35.80;45.20
78028;DHT22;67235;45.638;11.714;2023-07-16T15:02:45;35.90;48.90
78028;DHT22;67235;45.638;11.714;2023-07-16T15:05:11;35.80;47.30
78028;DHT22;67235;45.638;11.714;2023-07-16T15:07:37;35.50;44.90
78028;DHT22;67235;45.638;11.714;2023-07-16T15:10:04;35.50;45.00
78028;DHT22;67235;45.638;11.714;2023-07-16T15:12:31;35.50;45.60
78028;DHT22;67235;45.638;11.714;2023-07-16T15:14:58;35.30;47.00
78028;DHT22;67235;45.638;11.714;2023-07-16T15:17:24;35.40;46.20
78028;DHT22;67235;45.638;11.714;2023-07-16T15:19:51;35.40;46.30
78028;DHT22;67235;45.638;11.714;2023-07-16T15:22:17;35.50;43.90
78028;DHT22;67235;45.638;11.714;2023-07-16T15:24:47;35.50;45.20
78028;DHT22;67235;45.638;11.714;2023-07-16T15:27:14;35.50;44.50